Time;durP1;ratioP1;P1;durP2;ratioP2;P2;SDS_P1;SDS_P2;PMS_P1;PMS_P2;Temp;Humidity;BMP_temperature;BMP_pressure;BME280_temperature;BME280_humidity;BME280_pressure;Samples;Min_cycle;Max_cycle;Signal;HPM_P1;HPM_P2
2023/05/13 00:00:57;;;;;;;2.53;2.30;;;;;;;;;;4977894;28;20323;-80
2023/05/13 00:03:25;;;;;;;2.40;2.20;;;;;;;;;;4977581;28;20228;-79
2023/05/13 00:05:54;;;;;;;2.10;1.90;;;;;;;;;;4979363;28;20209;-79
2023/05/13 00:08:21;;;;;;;2.10;2.00;;;;;;;;;;4980553;28;20300;-80
2023/05/13 00:10:49;;;;;;;2.53;2.33;;;;;;;;;;4998716;28;20686;-80
2023/05/13 00:13:16;;;;;;;1.83;1.70;;;;;;;;;;4999469;28;20294;-80
2023/05/13 00:15:44;;;;;;;2.00;1.90;;;;;;;;;;4998103;28;20211;-80
2023/05/13 00:18:11;;;;;;;2.40;2.20;;;;;;;;;;4997452;28;20204;-80
2023/05/13 00:20:39;;;;;;;3.08;2.40;;;;;;;;;;4999278;28;20722;-80
2023/05/13 00:23:07;;;;;;;2.30;2.10;;;;;;;;;;4998827;28;20214;-80
2023/05/13 00:25:35;;;;;;;3.60;2.28;;;;;;;;;;5003934;28;20207;-80
2023/05/13 00:28:02;;;;;;;2.20;2.10;;;;;;;;;;5003500;28;20200;-80
2023/05/13 00:30:30;;;;;;;2.75;2.10;;;;;;;;;;5006294;28;20230;-80
2023/05/13 00:32:57;;;;;;;3.42;2.25;;;;;;;;;;5006125;28;20643;-80
2023/05/13 00:35:25;;;;;;;3.13;2.72;;;;;;;;;;5005405;28;20224;-80
2023/05/13 00:37:52;;;;;;;3.63;2.20;;;;;;;;;;5003695;28;20210;-81
2023/05/13 00:40:24;;;;;;;3.22;2.85;;;;;;;;;;5002080;28;20207;-80
2023/05/13 00:42:53;;;;;;;3.17;2.88;;;;;;;;;;5004398;28;20207;-81
2023/05/13 00:45:21;;;;;;;3.22;2.92;;;;;;;;;;5002724;28;20235;-80
2023/05/13 00:47:50;;;;;;;2.50;2.30;;;;;;;;;;5002470;28;20204;-80
2023/05/13 00:50:17;;;;;;;2.30;2.20;;;;;;;;;;5003405;28;20672;-80
2023/05/13 00:52:45;;;;;;;3.95;2.40;;;;;;;;;;5002945;28;20730;-80
2023/05/13 00:55:12;;;;;;;4.78;3.05;;;;;;;;;;5000063;28;20225;-80
2023/05/13 00:57:41;;;;;;;3.30;2.22;;;;;;;;;;5003077;28;20295;-80
2023/05/13 01:00:11;;;;;;;3.45;2.25;;;;;;;;;;5002615;28;20290;-80
2023/05/13 01:02:45;;;;;;;2.85;2.65;;;;;;;;;;5001801;28;20263;-81
2023/05/13 01:05:24;;;;;;;3.15;2.40;;;;;;;;;;5001785;28;20306;-80
2023/05/13 01:08:03;;;;;;;2.97;2.55;;;;;;;;;;5002287;28;20195;-80
2023/05/13 01:10:38;;;;;;;3.38;2.50;;;;;;;;;;5004839;28;20214;-80
2023/05/13 01:13:10;;;;;;;4.07;3.38;;;;;;;;;;5006691;28;20203;-80
2023/05/13 01:15:43;;;;;;;3.45;2.47;;;;;;;;;;5012972;28;20293;-80
2023/05/13 01:18:13;;;;;;;2.63;2.42;;;;;;;;;;5002880;28;20226;-80
2023/05/13 01:20:42;;;;;;;2.83;2.47;;;;;;;;;;5002345;28;20203;-81
2023/05/13 01:23:12;;;;;;;3.05;2.75;;;;;;;;;;4999673;28;20238;-79
2023/05/13 01:25:39;;;;;;;2.42;2.20;;;;;;;;;;4996495;28;20588;-80
2023/05/13 01:28:07;;;;;;;2.60;2.40;;;;;;;;;;4996772;28;20214;-80
2023/05/13 01:30:35;;;;;;;2.45;2.20;;;;;;;;;;4998178;28;20290;-80
2023/05/13 01:33:02;;;;;;;2.33;2.15;;;;;;;;;;4996387;28;20686;-80
2023/05/13 01:35:30;;;;;;;3.45;2.40;;;;;;;;;;4996719;28;20202;-80
2023/05/13 01:37:58;;;;;;;3.00;2.80;;;;;;;;;;4996624;28;20958;-80
2023/05/13 01:40:26;;;;;;;2.70;2.50;;;;;;;;;;4998122;28;20755;-80
2023/05/13 01:42:54;;;;;;;2.95;2.63;;;;;;;;;;4996511;28;20238;-80
2023/05/13 01:45:21;;;;;;;3.28;3.08;;;;;;;;;;4995980;28;20228;-80
2023/05/13 01:47:49;;;;;;;3.53;3.20;;;;;;;;;;4996142;28;20213;-80
2023/05/13 01:50:16;;;;;;;5.18;2.90;;;;;;;;;;4995279;28;20207;-80
2023/05/13 01:52:43;;;;;;;5.20;2.80;;;;;;;;;;4995201;28;20207;-79
2023/05/13 01:55:11;;;;;;;2.88;2.60;;;;;;;;;;4996755;28;20238;-79
2023/05/13 01:57:40;;;;;;;2.92;2.63;;;;;;;;;;4995714;28;20211;-80
2023/05/13 02:00:09;;;;;;;2.53;2.33;;;;;;;;;;4995397;28;20203;-80
2023/05/13 02:02:37;;;;;;;3.80;2.42;;;;;;;;;;4996441;28;20254;-79
2023/05/13 02:05:05;;;;;;;3.47;2.78;;;;;;;;;;4997861;28;20223;-80
2023/05/13 02:07:33;;;;;;;2.80;2.60;;;;;;;;;;4998602;28;20208;-80
2023/05/13 02:10:01;;;;;;;2.75;2.55;;;;;;;;;;4996165;28;20298;-80
2023/05/13 02:12:28;;;;;;;3.67;2.45;;;;;;;;;;4997722;28;20276;-80
2023/05/13 02:14:57;;;;;;;3.22;2.92;;;;;;;;;;4998215;28;20318;-81
2023/05/13 02:17:24;;;;;;;3.78;2.53;;;;;;;;;;4996425;28;20313;-80
2023/05/13 02:19:52;;;;;;;3.33;2.80;;;;;;;;;;4994021;28;20206;-80
2023/05/13 02:22:19;;;;;;;2.97;2.50;;;;;;;;;;4994981;28;20228;-80
2023/05/13 02:24:46;;;;;;;3.78;2.78;;;;;;;;;;4996072;28;20806;-79
2023/05/13 02:27:15;;;;;;;3.05;2.63;;;;;;;;;;4994935;28;20214;-80
2023/05/13 02:29:42;;;;;;;2.72;2.38;;;;;;;;;;4993966;28;20203;-80
2023/05/13 02:32:11;;;;;;;2.60;2.40;;;;;;;;;;4994332;28;20203;-80
2023/05/13 02:34:39;;;;;;;3.22;2.88;;;;;;;;;;4995459;28;20231;-80
2023/05/13 02:37:06;;;;;;;5.00;2.75;;;;;;;;;;4995829;28;20207;-80
2023/05/13 02:39:34;;;;;;;4.85;2.33;;;;;;;;;;4995861;28;20621;-80
2023/05/13 02:42:02;;;;;;;2.80;2.58;;;;;;;;;;4996265;28;20238;-80
2023/05/13 02:44:29;;;;;;;3.90;2.50;;;;;;;;;;4997154;28;20231;-80
2023/05/13 02:46:57;;;;;;;2.72;2.53;;;;;;;;;;4997271;28;20212;-80
2023/05/13 02:49:25;;;;;;;2.58;2.38;;;;;;;;;;4997201;28;20298;-81
2023/05/13 02:51:53;;;;;;;2.22;2.13;;;;;;;;;;4997428;28;20196;-80
2023/05/13 02:54:20;;;;;;;2.75;2.45;;;;;;;;;;4998167;28;20306;-80
2023/05/13 02:56:48;;;;;;;2.83;2.20;;;;;;;;;;4997847;28;20200;-80
2023/05/13 02:59:15;;;;;;;2.97;2.75;;;;;;;;;;4997770;28;20299;-80
2023/05/13 03:01:43;;;;;;;4.15;2.80;;;;;;;;;;4997038;28;20683;-80
2023/05/13 03:04:10;;;;;;;2.85;2.65;;;;;;;;;;4997956;28;20321;-80
2023/05/13 03:06:39;;;;;;;4.20;2.60;;;;;;;;;;5000733;28;20797;-80
2023/05/13 03:09:06;;;;;;;2.47;2.28;;;;;;;;;;5001443;28;20208;-80
2023/05/13 03:11:34;;;;;;;3.22;3.00;;;;;;;;;;5000821;28;20683;-80
2023/05/13 03:14:01;;;;;;;2.80;2.60;;;;;;;;;;5001111;28;20310;-81
2023/05/13 03:16:28;;;;;;;3.47;2.53;;;;;;;;;;5000580;28;20208;-80
2023/05/13 03:18:56;;;;;;;2.95;2.75;;;;;;;;;;5001085;28;20203;-81
2023/05/13 03:21:23;;;;;;;2.60;2.28;;;;;;;;;;5000726;28;20294;-80
2023/05/13 03:23:52;;;;;;;3.47;2.90;;;;;;;;;;5001592;28;20238;-80
2023/05/13 03:26:20;;;;;;;3.05;2.80;;;;;;;;;;5001888;28;20690;-80
2023/05/13 03:28:47;;;;;;;2.85;2.35;;;;;;;;;;5000525;28;20242;-81
2023/05/13 03:31:15;;;;;;;2.83;2.63;;;;;;;;;;5000937;28;20298;-80
2023/05/13 03:33:42;;;;;;;3.30;2.75;;;;;;;;;;5000407;28;20315;-80
2023/05/13 03:36:10;;;;;;;2.85;2.65;;;;;;;;;;5000620;28;20214;-80
2023/05/13 03:38:37;;;;;;;2.83;2.55;;;;;;;;;;5000016;28;20688;-80
2023/05/13 03:41:06;;;;;;;2.50;2.35;;;;;;;;;;5001770;28;20230;-80
2023/05/13 03:43:34;;;;;;;3.33;3.03;;;;;;;;;;5000460;28;20232;-81
2023/05/13 03:46:01;;;;;;;2.78;2.58;;;;;;;;;;5000836;28;20251;-80
2023/05/13 03:48:29;;;;;;;9.25;2.75;;;;;;;;;;5000902;28;20208;-80
2023/05/13 03:50:56;;;;;;;3.42;2.35;;;;;;;;;;5000889;28;20207;-81
2023/05/13 03:53:24;;;;;;;3.10;2.80;;;;;;;;;;5000479;28;20295;-80
2023/05/13 03:55:51;;;;;;;3.35;3.05;;;;;;;;;;5000747;28;20204;-81
2023/05/13 03:58:21;;;;;;;3.42;2.40;;;;;;;;;;4999969;28;20200;-80
2023/05/13 04:00:49;;;;;;;3.25;2.80;;;;;;;;;;4999878;28;20207;-80
2023/05/13 04:03:17;;;;;;;2.75;2.55;;;;;;;;;;4999239;28;20219;-81
2023/05/13 04:05:45;;;;;;;2.80;2.53;;;;;;;;;;4999750;28;20203;-80
2023/05/13 04:08:13;;;;;;;3.15;2.88;;;;;;;;;;4998885;28;20275;-80
2023/05/13 04:10:40;;;;;;;3.20;2.90;;;;;;;;;;4999290;28;20254;-80
2023/05/13 04:13:08;;;;;;;3.30;3.00;;;;;;;;;;4999235;28;20203;-80
2023/05/13 04:15:37;;;;;;;3.15;2.67;;;;;;;;;;4998147;28;20207;-81
2023/05/13 04:18:04;;;;;;;4.10;3.60;;;;;;;;;;4997183;28;20271;-80
2023/05/13 04:20:32;;;;;;;3.22;2.63;;;;;;;;;;4998604;28;20207;-81
2023/05/13 04:23:00;;;;;;;2.75;2.42;;;;;;;;;;4999195;28;20230;-80
2023/05/13 04:25:27;;;;;;;2.80;2.60;;;;;;;;;;4999732;28;20199;-81
2023/05/13 04:27:55;;;;;;;2.75;2.55;;;;;;;;;;5000062;28;20306;-80
2023/05/13 04:30:22;;;;;;;3.03;2.72;;;;;;;;;;4999928;28;20290;-80
2023/05/13 04:32:51;;;;;;;2.80;2.60;;;;;;;;;;5000249;28;20199;-80
2023/05/13 04:35:19;;;;;;;3.45;2.65;;;;;;;;;;4998905;28;20315;-80
2023/05/13 04:37:46;;;;;;;3.22;2.40;;;;;;;;;;4999541;28;20208;-81
2023/05/13 04:40:14;;;;;;;4.75;3.28;;;;;;;;;;4998717;28;20706;-80
2023/05/13 04:42:41;;;;;;;2.50;2.30;;;;;;;;;;4999036;28;20274;-80
2023/05/13 04:45:10;;;;;;;2.00;1.90;;;;;;;;;;4998990;28;20231;-80
2023/05/13 04:47:37;;;;;;;2.55;2.35;;;;;;;;;;5000418;28;20593;-80
2023/05/13 04:50:07;;;;;;;2.63;2.42;;;;;;;;;;4998799;28;20298;-80
2023/05/13 04:52:36;;;;;;;1.88;1.67;;;;;;;;;;4998231;28;20211;-80
2023/05/13 04:55:03;;;;;;;2.13;1.92;;;;;;;;;;4997942;28;20287;-81
2023/05/13 04:57:31;;;;;;;1.70;1.60;;;;;;;;;;4998036;28;20804;-80
2023/05/13 04:59:58;;;;;;;1.90;1.80;;;;;;;;;;4998084;28;20758;-80
2023/05/13 05:02:28;;;;;;;2.20;2.10;;;;;;;;;;4998535;28;20290;-80
2023/05/13 05:04:56;;;;;;;2.55;2.38;;;;;;;;;;4997505;28;20738;-80
2023/05/13 05:07:25;;;;;;;2.70;2.10;;;;;;;;;;4997930;28;20210;-80
2023/05/13 05:09:52;;;;;;;2.95;2.45;;;;;;;;;;4997264;28;20238;-80
2023/05/13 05:12:19;;;;;;;2.60;2.40;;;;;;;;;;4997085;28;20693;-80
2023/05/13 05:14:47;;;;;;;2.25;2.05;;;;;;;;;;4997153;28;20222;-80
2023/05/13 05:17:14;;;;;;;2.30;2.10;;;;;;;;;;4996856;28;20203;-80
2023/05/13 05:19:42;;;;;;;3.42;2.20;;;;;;;;;;4996345;28;20299;-80
2023/05/13 05:22:09;;;;;;;2.58;2.30;;;;;;;;;;4996940;28;20679;-80
2023/05/13 05:24:38;;;;;;;2.60;2.40;;;;;;;;;;4996685;28;20228;-80
2023/05/13 05:27:06;;;;;;;3.85;2.47;;;;;;;;;;4996148;28;20199;-80
2023/05/13 05:29:33;;;;;;;2.38;2.10;;;;;;;;;;4996699;28;20286;-80
2023/05/13 05:32:01;;;;;;;3.38;2.50;;;;;;;;;;4996955;28;20204;-81
2023/05/13 05:34:28;;;;;;;4.50;2.90;;;;;;;;;;4996168;28;20245;-80
2023/05/13 05:36:55;;;;;;;4.40;2.30;;;;;;;;;;4997234;28;20291;-80
2023/05/13 05:39:23;;;;;;;4.93;2.40;;;;;;;;;;4996447;28;20204;-80
2023/05/13 05:41:53;;;;;;;4.05;2.13;;;;;;;;;;4995451;28;20322;-78
2023/05/13 05:44:20;;;;;;;2.10;1.92;;;;;;;;;;5023114;23;20226;-80
2023/05/13 05:46:47;;;;;;;2.92;2.53;;;;;;;;;;5013000;28;20207;-82
2023/05/13 05:49:15;;;;;;;2.33;2.13;;;;;;;;;;5012558;28;20230;-81
2023/05/13 05:51:42;;;;;;;2.97;2.42;;;;;;;;;;5013088;28;20579;-82
2023/05/13 05:54:10;;;;;;;4.10;2.67;;;;;;;;;;5012590;28;20317;-82
2023/05/13 05:56:37;;;;;;;2.53;2.30;;;;;;;;;;5012963;28;20302;-81
2023/05/13 05:59:06;;;;;;;2.85;2.45;;;;;;;;;;5012593;28;20209;-82
2023/05/13 06:01:35;;;;;;;2.85;2.63;;;;;;;;;;5013267;28;20580;-81
2023/05/13 06:04:03;;;;;;;2.70;2.50;;;;;;;;;;5012901;28;20319;-81
2023/05/13 06:06:31;;;;;;;3.10;2.90;;;;;;;;;;5013197;28;20666;-81
2023/05/13 06:08:58;;;;;;;2.88;2.58;;;;;;;;;;5012549;28;20257;-81
2023/05/13 06:11:26;;;;;;;3.88;3.35;;;;;;;;;;5013005;28;20224;-82
2023/05/13 06:13:56;;;;;;;4.65;2.88;;;;;;;;;;5012474;28;20305;-81
2023/05/13 06:16:25;;;;;;;3.17;2.40;;;;;;;;;;5013177;28;20276;-82
2023/05/13 06:18:52;;;;;;;5.05;2.42;;;;;;;;;;5012114;28;20214;-81
2023/05/13 06:21:20;;;;;;;2.50;2.30;;;;;;;;;;5012531;28;20298;-81
2023/05/13 06:23:47;;;;;;;2.67;2.47;;;;;;;;;;5012663;28;20609;-81
2023/05/13 06:26:14;;;;;;;2.33;2.13;;;;;;;;;;5012327;28;20207;-82
2023/05/13 06:28:42;;;;;;;2.47;2.25;;;;;;;;;;5012450;28;20213;-81
2023/05/13 06:31:09;;;;;;;2.47;2.28;;;;;;;;;;5012551;28;20213;-81
2023/05/13 06:33:38;;;;;;;2.58;2.38;;;;;;;;;;5012003;28;20210;-82
2023/05/13 06:36:08;;;;;;;2.65;2.45;;;;;;;;;;5013052;28;20203;-81
2023/05/13 06:38:35;;;;;;;2.20;2.00;;;;;;;;;;5011652;28;20233;-81
2023/05/13 06:41:03;;;;;;;2.30;2.10;;;;;;;;;;5012520;28;20206;-82
2023/05/13 06:43:30;;;;;;;3.65;2.35;;;;;;;;;;5012400;28;20424;-83
2023/05/13 06:45:58;;;;;;;2.90;2.40;;;;;;;;;;5012935;28;20227;-81
2023/05/13 06:48:26;;;;;;;2.40;2.25;;;;;;;;;;5013048;28;20203;-82
2023/05/13 06:50:55;;;;;;;3.47;2.30;;;;;;;;;;5012459;28;20207;-81
2023/05/13 06:53:22;;;;;;;3.53;3.13;;;;;;;;;;5012180;28;20206;-82
2023/05/13 06:55:50;;;;;;;3.00;2.80;;;;;;;;;;5012414;28;20294;-81
2023/05/13 06:58:17;;;;;;;2.80;2.45;;;;;;;;;;5012182;28;20309;-82
2023/05/13 07:00:45;;;;;;;2.50;2.30;;;;;;;;;;5012671;28;20209;-82
2023/05/13 07:03:13;;;;;;;2.95;2.53;;;;;;;;;;5012510;28;20203;-81
2023/05/13 07:05:40;;;;;;;2.88;2.67;;;;;;;;;;5012335;28;20227;-81
2023/05/13 07:08:09;;;;;;;3.72;2.38;;;;;;;;;;5012625;28;20202;-83
2023/05/13 07:10:37;;;;;;;2.42;2.22;;;;;;;;;;5012391;28;20199;-82
2023/05/13 07:13:04;;;;;;;2.70;2.60;;;;;;;;;;5017340;28;20202;-83
2023/05/13 07:15:32;;;;;;;2.63;1.90;;;;;;;;;;5022525;28;20233;-82
2023/05/13 07:17:59;;;;;;;2.35;2.20;;;;;;;;;;5015796;28;20206;-82
2023/05/13 07:20:27;;;;;;;2.10;2.00;;;;;;;;;;5012304;28;20202;-81
2023/05/13 07:22:54;;;;;;;2.53;2.42;;;;;;;;;;5012213;28;20199;-82
2023/05/13 07:25:23;;;;;;;3.13;2.55;;;;;;;;;;5012212;28;20242;-82
2023/05/13 07:27:50;;;;;;;2.50;2.30;;;;;;;;;;5011798;28;20203;-82
2023/05/13 07:30:18;;;;;;;2.05;1.88;;;;;;;;;;5012561;28;20205;-82
2023/05/13 07:32:45;;;;;;;2.40;2.13;;;;;;;;;;5012447;28;20203;-82
2023/05/13 07:35:13;;;;;;;2.58;2.38;;;;;;;;;;5012042;28;20245;-81
2023/05/13 07:37:41;;;;;;;3.33;3.03;;;;;;;;;;5011901;28;20250;-81
2023/05/13 07:40:09;;;;;;;2.75;2.45;;;;;;;;;;5012249;28;20207;-82
2023/05/13 07:42:38;;;;;;;4.18;2.50;;;;;;;;;;5011907;28;20211;-81
2023/05/13 07:45:08;;;;;;;2.55;2.35;;;;;;;;;;5011593;28;20235;-82
2023/05/13 07:47:35;;;;;;;2.58;2.05;;;;;;;;;;5011898;28;20290;-81
2023/05/13 07:50:03;;;;;;;3.17;2.97;;;;;;;;;;5014375;28;20203;-81
2023/05/13 07:52:30;;;;;;;3.53;2.40;;;;;;;;;;5015802;28;20210;-83
2023/05/13 07:54:58;;;;;;;2.03;1.88;;;;;;;;;;5015499;28;20706;-82
2023/05/13 07:57:25;;;;;;;2.00;1.90;;;;;;;;;;5015135;28;20762;-83
2023/05/13 07:59:54;;;;;;;3.15;2.95;;;;;;;;;;5015472;28;20234;-82
2023/05/13 08:02:23;;;;;;;2.30;2.10;;;;;;;;;;5015760;28;20806;-80
2023/05/13 08:04:50;;;;;;;2.92;2.65;;;;;;;;;;5015494;28;20235;-81
2023/05/13 08:07:18;;;;;;;1.95;1.85;;;;;;;;;;5015767;28;20203;-81
2023/05/13 08:09:45;;;;;;;3.20;2.90;;;;;;;;;;5016013;28;20205;-83
2023/05/13 08:12:13;;;;;;;2.22;2.13;;;;;;;;;;5016463;28;20301;-82
2023/05/13 08:14:40;;;;;;;3.90;2.75;;;;;;;;;;5015616;28;20227;-82
2023/05/13 08:17:09;;;;;;;3.03;2.40;;;;;;;;;;5016193;28;20209;-84
2023/05/13 08:19:37;;;;;;;3.28;3.08;;;;;;;;;;5015946;28;20210;-81
2023/05/13 08:22:04;;;;;;;2.85;2.22;;;;;;;;;;5015983;28;20566;-80
2023/05/13 08:24:32;;;;;;;2.70;2.50;;;;;;;;;;5015616;28;20230;-82
2023/05/13 08:26:59;;;;;;;3.00;2.80;;;;;;;;;;5015221;28;20223;-83
2023/05/13 08:29:27;;;;;;;2.80;2.47;;;;;;;;;;5014851;28;20210;-82
2023/05/13 08:31:54;;;;;;;2.67;2.47;;;;;;;;;;5015204;28;20750;-81
2023/05/13 08:34:23;;;;;;;2.70;2.50;;;;;;;;;;5015105;28;20280;-83
2023/05/13 08:36:50;;;;;;;3.10;2.80;;;;;;;;;;5015160;28;20627;-81
2023/05/13 08:39:18;;;;;;;3.75;3.20;;;;;;;;;;5014530;28;20207;-81
2023/05/13 08:41:45;;;;;;;2.28;2.08;;;;;;;;;;5015078;28;20293;-81
2023/05/13 08:44:13;;;;;;;3.95;2.40;;;;;;;;;;5014852;28;20322;-82
2023/05/13 08:46:44;;;;;;;2.80;2.60;;;;;;;;;;5014642;28;20330;-81
2023/05/13 08:49:12;;;;;;;3.88;3.45;;;;;;;;;;5014613;28;20207;-82
2023/05/13 08:51:43;;;;;;;3.60;2.60;;;;;;;;;;5014761;28;20213;-82
2023/05/13 08:54:10;;;;;;;2.67;2.50;;;;;;;;;;5015031;28;20215;-82
2023/05/13 08:56:38;;;;;;;2.65;2.30;;;;;;;;;;5015045;28;20229;-82
2023/05/13 08:59:05;;;;;;;2.75;2.55;;;;;;;;;;5014027;28;20205;-81
2023/05/13 09:01:33;;;;;;;2.90;2.70;;;;;;;;;;5013467;28;20584;-83
2023/05/13 09:04:04;;;;;;;2.78;2.10;;;;;;;;;;5014149;28;20229;-81
2023/05/13 09:06:32;;;;;;;2.58;2.28;;;;;;;;;;5014563;28;20699;-83
2023/05/13 09:09:01;;;;;;;2.25;2.10;;;;;;;;;;5014727;28;20303;-83
2023/05/13 09:11:29;;;;;;;2.92;2.60;;;;;;;;;;5014583;28;20239;-82
2023/05/13 09:14:00;;;;;;;3.97;2.45;;;;;;;;;;5014647;28;20254;-81
2023/05/13 09:16:29;;;;;;;2.30;2.10;;;;;;;;;;5014418;28;20213;-82
2023/05/13 09:18:59;;;;;;;4.45;2.72;;;;;;;;;;5014297;28;20210;-81
2023/05/13 09:21:29;;;;;;;2.65;2.13;;;;;;;;;;5014135;28;20207;-82
2023/05/13 09:24:17;;;;;;;2.03;1.92;;;;;;;;;;5014326;28;20226;-80
2023/05/13 09:26:44;;;;;;;3.38;2.40;;;;;;;;;;5013915;28;20226;-81
2023/05/13 09:29:23;;;;;;;5.43;2.90;;;;;;;;;;5013933;28;20297;-82
2023/05/13 09:31:53;;;;;;;1.80;1.70;;;;;;;;;;5015345;28;20573;-82
2023/05/13 09:34:29;;;;;;;2.03;1.92;;;;;;;;;;5014893;28;20781;-83
2023/05/13 09:37:02;;;;;;;1.65;1.55;;;;;;;;;;5015324;28;20210;-82
2023/05/13 09:39:33;;;;;;;1.90;1.48;;;;;;;;;;5013995;28;20590;-81
2023/05/13 09:42:02;;;;;;;1.60;1.50;;;;;;;;;;5013952;28;20693;-81
2023/05/13 09:44:29;;;;;;;2.90;2.08;;;;;;;;;;5014264;28;20615;-83
2023/05/13 09:46:57;;;;;;;3.22;2.60;;;;;;;;;;5014039;28;20223;-82
2023/05/13 09:49:26;;;;;;;2.55;2.35;;;;;;;;;;5013836;28;20202;-81
2023/05/13 09:51:54;;;;;;;2.60;2.40;;;;;;;;;;5014032;28;20206;-81
2023/05/13 09:54:21;;;;;;;2.20;2.08;;;;;;;;;;5014143;28;20233;-81
2023/05/13 09:56:50;;;;;;;2.95;2.30;;;;;;;;;;5013551;28;20199;-81
2023/05/13 09:59:17;;;;;;;4.15;2.20;;;;;;;;;;5013744;28;20203;-83
2023/05/13 10:01:46;;;;;;;3.17;2.88;;;;;;;;;;5013894;28;20675;-82
2023/05/13 10:04:13;;;;;;;2.33;2.10;;;;;;;;;;5013548;28;20223;-83
2023/05/13 10:06:41;;;;;;;2.00;1.90;;;;;;;;;;5013146;28;20277;-82
2023/05/13 10:09:10;;;;;;;2.17;2.03;;;;;;;;;;5013955;28;20203;-82
2023/05/13 10:11:38;;;;;;;3.17;2.88;;;;;;;;;;5013478;28;20301;-81
2023/05/13 10:14:07;;;;;;;4.22;2.47;;;;;;;;;;5013354;28;20219;-83
2023/05/13 10:16:34;;;;;;;5.18;2.40;;;;;;;;;;5012777;28;20214;-83
2023/05/13 10:19:02;;;;;;;2.75;2.55;;;;;;;;;;5012792;28;20290;-83
2023/05/13 10:21:31;;;;;;;3.70;2.75;;;;;;;;;;5013682;28;20210;-84
2023/05/13 10:24:00;;;;;;;2.22;2.08;;;;;;;;;;5013062;28;20762;-82
2023/05/13 10:26:28;;;;;;;1.90;1.80;;;;;;;;;;5013712;28;20231;-82
2023/05/13 10:28:56;;;;;;;2.72;2.08;;;;;;;;;;5013363;28;20209;-82
2023/05/13 10:31:25;;;;;;;2.60;2.50;;;;;;;;;;5013567;28;20202;-81
2023/05/13 10:33:53;;;;;;;2.33;2.13;;;;;;;;;;5012945;28;20230;-83
2023/05/13 10:36:36;;;;;;;2.70;2.50;;;;;;;;;;5013511;28;20565;-82
2023/05/13 10:39:24;;;;;;;1.83;1.73;;;;;;;;;;5013108;28;20218;-83
2023/05/13 10:42:39;;;;;;;2.50;2.30;;;;;;;;;;5013168;28;20203;-81
2023/05/13 10:45:07;;;;;;;1.80;1.70;;;;;;;;;;5012832;28;20326;-84
2023/05/13 10:47:36;;;;;;;2.47;2.28;;;;;;;;;;5012720;28;20230;-83
2023/05/13 10:50:22;;;;;;;2.53;2.33;;;;;;;;;;5013130;28;20574;-82
2023/05/13 10:52:50;;;;;;;2.55;2.35;;;;;;;;;;5012758;28;20226;-80
2023/05/13 10:55:19;;;;;;;2.08;1.98;;;;;;;;;;5013234;28;20277;-81
2023/05/13 10:58:09;;;;;;;2.00;1.90;;;;;;;;;;5012717;28;20203;-83
2023/05/13 11:00:38;;;;;;;2.30;2.20;;;;;;;;;;5013226;28;20706;-81
2023/05/13 11:03:30;;;;;;;2.25;2.10;;;;;;;;;;5012561;28;20198;-83
2023/05/13 11:06:14;;;;;;;1.88;1.77;;;;;;;;;;5006698;28;20207;-82
2023/05/13 11:08:44;;;;;;;1.70;1.60;;;;;;;;;;5011885;28;20229;-81
2023/05/13 11:11:31;;;;;;;1.65;1.55;;;;;;;;;;5012595;28;20211;-81
2023/05/13 11:14:19;;;;;;;2.83;2.53;;;;;;;;;;5013117;28;20226;-81
2023/05/13 11:16:51;;;;;;;2.22;2.08;;;;;;;;;;5013173;28;20207;-82
2023/05/13 11:19:26;;;;;;;2.60;2.40;;;;;;;;;;5012063;28;20213;-81
2023/05/13 11:21:56;;;;;;;2.45;2.25;;;;;;;;;;5012328;28;20214;-81
2023/05/13 11:24:23;;;;;;;2.72;2.53;;;;;;;;;;5014151;28;20248;-81
2023/05/13 11:26:55;;;;;;;2.28;2.13;;;;;;;;;;5015809;28;20597;-81
2023/05/13 11:29:33;;;;;;;2.47;2.28;;;;;;;;;;5015699;28;20652;-82
2023/05/13 11:32:02;;;;;;;2.88;2.10;;;;;;;;;;5016026;28;20293;-82
2023/05/13 11:34:31;;;;;;;2.38;2.15;;;;;;;;;;5015892;28;20223;-81
2023/05/13 11:37:09;;;;;;;2.17;1.98;;;;;;;;;;5016401;28;20203;-83
2023/05/13 11:39:40;;;;;;;1.95;1.85;;;;;;;;;;5016405;28;20671;-82
2023/05/13 11:42:09;;;;;;;3.47;1.80;;;;;;;;;;5016192;28;20207;-82
2023/05/13 11:44:45;;;;;;;1.88;1.77;;;;;;;;;;5031163;23;20233;-77
2023/05/13 11:47:12;;;;;;;1.20;1.20;;;;;;;;;;4996133;28;20231;-78
2023/05/13 11:49:42;;;;;;;1.92;1.83;;;;;;;;;;4994723;28;20212;-78
2023/05/13 11:52:12;;;;;;;1.63;1.52;;;;;;;;;;4996004;28;20680;-78
2023/05/13 11:54:46;;;;;;;1.58;1.48;;;;;;;;;;4996146;28;20232;-78
2023/05/13 11:57:20;;;;;;;1.70;1.45;;;;;;;;;;4996299;28;20218;-77
2023/05/13 11:59:56;;;;;;;2.00;1.50;;;;;;;;;;4996299;28;20194;-77
2023/05/13 12:02:25;;;;;;;1.30;1.20;;;;;;;;;;4995819;28;20203;-77
2023/05/13 12:04:55;;;;;;;2.20;2.00;;;;;;;;;;4995783;28;20749;-77
2023/05/13 12:07:24;;;;;;;1.80;1.70;;;;;;;;;;4995738;28;20230;-78
2023/05/13 12:09:51;;;;;;;2.20;1.67;;;;;;;;;;4995433;28;20668;-78
2023/05/13 12:12:20;;;;;;;2.03;1.70;;;;;;;;;;4995776;28;20203;-78
2023/05/13 12:14:49;;;;;;;1.70;1.60;;;;;;;;;;4995444;28;20224;-77
2023/05/13 12:17:17;;;;;;;2.58;1.52;;;;;;;;;;4995464;28;20207;-77
2023/05/13 12:20:08;;;;;;;1.90;1.80;;;;;;;;;;4995822;28;20596;-77
2023/05/13 12:22:37;;;;;;;1.88;1.75;;;;;;;;;;4995457;28;20200;-77
2023/05/13 12:25:42;;;;;;;2.47;1.63;;;;;;;;;;4995557;28;20306;-78
2023/05/13 12:28:15;;;;;;;2.20;2.10;;;;;;;;;;4995219;28;20842;-78
2023/05/13 12:30:46;;;;;;;2.55;2.28;;;;;;;;;;4995621;28;20624;-77
2023/05/13 12:33:15;;;;;;;2.80;2.50;;;;;;;;;;4995424;28;20204;-78
2023/05/13 12:35:47;;;;;;;2.80;2.60;;;;;;;;;;4995302;28;20731;-78
2023/05/13 12:38:17;;;;;;;2.17;2.05;;;;;;;;;;4995158;28;20200;-78
2023/05/13 12:40:45;;;;;;;1.83;1.73;;;;;;;;;;4995544;28;20231;-77
2023/05/13 12:43:12;;;;;;;2.10;1.90;;;;;;;;;;4994964;28;20690;-77
2023/05/13 12:45:42;;;;;;;2.83;2.63;;;;;;;;;;4995390;28;20239;-79
2023/05/13 12:48:10;;;;;;;2.50;2.30;;;;;;;;;;4995421;28;20227;-78
2023/05/13 12:50:38;;;;;;;2.38;2.17;;;;;;;;;;4995386;28;20203;-78
2023/05/13 12:53:07;;;;;;;4.32;3.10;;;;;;;;;;4995366;28;20204;-78
2023/05/13 12:55:38;;;;;;;2.38;2.05;;;;;;;;;;4995021;28;20708;-78
2023/05/13 12:58:09;;;;;;;2.20;2.10;;;;;;;;;;4994793;28;20200;-79
2023/05/13 13:00:37;;;;;;;2.90;2.28;;;;;;;;;;4994861;28;20694;-78
2023/05/13 13:03:04;;;;;;;2.50;2.30;;;;;;;;;;4994764;28;20294;-79
2023/05/13 13:05:33;;;;;;;2.85;1.88;;;;;;;;;;4994764;28;20282;-78
2023/05/13 13:08:01;;;;;;;3.42;2.47;;;;;;;;;;4995164;28;20232;-78
2023/05/13 13:10:30;;;;;;;2.80;2.60;;;;;;;;;;4994834;28;20203;-78
2023/05/13 13:12:57;;;;;;;2.58;2.38;;;;;;;;;;4993866;28;20210;-79
2023/05/13 13:15:24;;;;;;;2.97;2.75;;;;;;;;;;5002704;28;20733;-77
2023/05/13 13:17:52;;;;;;;1.90;1.80;;;;;;;;;;5006942;28;20199;-78
2023/05/13 13:20:19;;;;;;;2.30;2.10;;;;;;;;;;5013827;28;20206;-78
2023/05/13 13:22:47;;;;;;;3.05;1.90;;;;;;;;;;5014117;28;20675;-78
2023/05/13 13:25:14;;;;;;;2.90;2.03;;;;;;;;;;5013967;28;20310;-78
2023/05/13 13:27:43;;;;;;;2.42;1.80;;;;;;;;;;5013727;28;20578;-78
2023/05/13 13:30:13;;;;;;;2.10;1.90;;;;;;;;;;5014169;28;20210;-79
2023/05/13 13:32:40;;;;;;;2.45;1.70;;;;;;;;;;5015334;28;20249;-79
2023/05/13 13:35:09;;;;;;;4.05;2.00;;;;;;;;;;5014887;28;20226;-78
2023/05/13 13:37:36;;;;;;;4.13;2.65;;;;;;;;;;5014749;28;20217;-79
2023/05/13 13:40:05;;;;;;;2.15;2.05;;;;;;;;;;5013851;28;20210;-78
2023/05/13 13:42:32;;;;;;;1.98;1.88;;;;;;;;;;4998041;28;20212;-79
2023/05/13 13:45:01;;;;;;;2.53;2.13;;;;;;;;;;4994495;28;20318;-78
2023/05/13 13:47:28;;;;;;;2.65;2.45;;;;;;;;;;4993364;28;20258;-78
2023/05/13 13:49:56;;;;;;;2.72;2.53;;;;;;;;;;4993491;28;20219;-78
2023/05/13 13:52:26;;;;;;;1.98;1.88;;;;;;;;;;4993607;28;20206;-78
2023/05/13 13:54:54;;;;;;;1.80;1.70;;;;;;;;;;4994483;28;20515;-78
2023/05/13 13:57:21;;;;;;;2.58;1.67;;;;;;;;;;4994278;28;20199;-78
2023/05/13 13:59:49;;;;;;;5.03;2.42;;;;;;;;;;4993736;28;20608;-77
2023/05/13 14:02:18;;;;;;;2.00;1.90;;;;;;;;;;4993484;28;20210;-78
2023/05/13 14:04:46;;;;;;;2.00;1.80;;;;;;;;;;4993801;28;20230;-78
2023/05/13 14:07:14;;;;;;;2.45;2.25;;;;;;;;;;4995114;28;20212;-78
2023/05/13 14:09:41;;;;;;;2.20;2.03;;;;;;;;;;4994341;28;20220;-79
2023/05/13 14:12:09;;;;;;;2.53;2.33;;;;;;;;;;4994511;28;20207;-77
2023/05/13 14:14:36;;;;;;;2.40;2.20;;;;;;;;;;4994403;28;20224;-77
2023/05/13 14:17:04;;;;;;;2.17;1.98;;;;;;;;;;4993843;28;20302;-77
2023/05/13 14:19:33;;;;;;;3.35;2.05;;;;;;;;;;4993823;28;20207;-78
2023/05/13 14:22:00;;;;;;;4.20;3.13;;;;;;;;;;4994177;28;20638;-78
2023/05/13 14:24:28;;;;;;;2.28;2.17;;;;;;;;;;4993631;28;20674;-78
2023/05/13 14:26:55;;;;;;;2.63;2.42;;;;;;;;;;4994045;28;20236;-78
2023/05/13 14:29:23;;;;;;;2.38;2.28;;;;;;;;;;4993788;28;20623;-77
2023/05/13 14:31:50;;;;;;;2.35;1.98;;;;;;;;;;4993729;28;20242;-78
2023/05/13 14:34:18;;;;;;;2.30;2.20;;;;;;;;;;4994005;28;20266;-78
2023/05/13 14:36:46;;;;;;;2.72;2.10;;;;;;;;;;4993244;28;20200;-78
2023/05/13 14:39:14;;;;;;;4.60;2.20;;;;;;;;;;4993346;28;20295;-78
2023/05/13 14:41:44;;;;;;;2.45;2.25;;;;;;;;;;4995679;28;20241;-78
2023/05/13 14:44:12;;;;;;;3.33;2.30;;;;;;;;;;4993779;28;20242;-78
2023/05/13 14:46:40;;;;;;;2.60;2.30;;;;;;;;;;4994155;28;20215;-79
2023/05/13 14:49:08;;;;;;;3.90;2.50;;;;;;;;;;4994999;28;20738;-78
2023/05/13 14:51:35;;;;;;;2.53;2.15;;;;;;;;;;4995482;28;20676;-78
2023/05/13 14:54:05;;;;;;;4.45;2.53;;;;;;;;;;4994992;28;20207;-77